sensor_id;sensor_type;location;lat;lon;timestamp;P1;durP1;ratioP1;P2;durP2;ratioP2
35757;SDS011;21879;50.110;18.900;2023-09-07T00:08:34;9.30;;;7.50;;
35757;SDS011;21879;50.110;18.900;2023-09-07T00:19:03;8.70;;;6.90;;
35757;SDS011;21879;50.110;18.900;2023-09-07T00:29:31;9.40;;;7.00;;
35757;SDS011;21879;50.110;18.900;2023-09-07T00:39:59;8.70;;;6.90;;
35757;SDS011;21879;50.110;18.900;2023-09-07T00:50:28;8.40;;;6.90;;
35757;SDS011;21879;50.110;18.900;2023-09-07T01:00:57;10.10;;;6.00;;
35757;SDS011;21879;50.110;18.900;2023-09-07T01:11:26;6.30;;;5.00;;
35757;SDS011;21879;50.110;18.900;2023-09-07T01:22:01;9.50;;;6.40;;
35757;SDS011;21879;50.110;18.900;2023-09-07T01:32:30;6.10;;;5.20;;
35757;SDS011;21879;50.110;18.900;2023-09-07T01:42:59;7.60;;;5.80;;
35757;SDS011;21879;50.110;18.900;2023-09-07T01:53:27;6.00;;;4.60;;
35757;SDS011;21879;50.110;18.900;2023-09-07T02:03:55;8.70;;;5.20;;
35757;SDS011;21879;50.110;18.900;2023-09-07T02:24:50;7.70;;;5.70;;
35757;SDS011;21879;50.110;18.900;2023-09-07T02:35:18;6.40;;;5.10;;
35757;SDS011;21879;50.110;18.900;2023-09-07T02:45:46;8.10;;;5.80;;
35757;SDS011;21879;50.110;18.900;2023-09-07T02:56:16;9.00;;;6.10;;
35757;SDS011;21879;50.110;18.900;2023-09-07T03:06:44;10.10;;;7.00;;
35757;SDS011;21879;50.110;18.900;2023-09-07T03:17:12;12.10;;;9.50;;
35757;SDS011;21879;50.110;18.900;2023-09-07T03:27:42;15.60;;;9.60;;
35757;SDS011;21879;50.110;18.900;2023-09-07T03:38:09;9.50;;;8.20;;
35757;SDS011;21879;50.110;18.900;2023-09-07T03:59:05;13.10;;;8.90;;
35757;SDS011;21879;50.110;18.900;2023-09-07T04:09:33;9.80;;;7.20;;
35757;SDS011;21879;50.110;18.900;2023-09-07T04:20:01;15.80;;;11.20;;
35757;SDS011;21879;50.110;18.900;2023-09-07T04:30:30;11.00;;;9.10;;
35757;SDS011;21879;50.110;18.900;2023-09-07T04:41:06;16.00;;;11.40;;
35757;SDS011;21879;50.110;18.900;2023-09-07T04:51:35;12.80;;;9.30;;
35757;SDS011;21879;50.110;18.900;2023-09-07T05:02:02;10.80;;;7.80;;
35757;SDS011;21879;50.110;18.900;2023-09-07T05:12:30;10.40;;;6.90;;
35757;SDS011;21879;50.110;18.900;2023-09-07T05:22:58;13.80;;;9.40;;
35757;SDS011;21879;50.110;18.900;2023-09-07T05:33:35;19.50;;;13.30;;
35757;SDS011;21879;50.110;18.900;2023-09-07T05:44:04;14.70;;;10.00;;
35757;SDS011;21879;50.110;18.900;2023-09-07T05:54:32;17.30;;;12.80;;
35757;SDS011;21879;50.110;18.900;2023-09-07T06:05:00;18.00;;;11.20;;
35757;SDS011;21879;50.110;18.900;2023-09-07T06:15:30;20.00;;;15.20;;
35757;SDS011;21879;50.110;18.900;2023-09-07T06:25:58;15.80;;;12.00;;
35757;SDS011;21879;50.110;18.900;2023-09-07T06:36:26;18.30;;;12.10;;
35757;SDS011;21879;50.110;18.900;2023-09-07T06:47:11;16.30;;;12.30;;
35757;SDS011;21879;50.110;18.900;2023-09-07T06:57:39;17.80;;;12.10;;
35757;SDS011;21879;50.110;18.900;2023-09-07T07:08:07;15.80;;;12.30;;
35757;SDS011;21879;50.110;18.900;2023-09-07T07:18:35;12.30;;;10.40;;
35757;SDS011;21879;50.110;18.900;2023-09-07T07:29:08;15.20;;;11.40;;
35757;SDS011;21879;50.110;18.900;2023-09-07T07:39:36;11.30;;;8.70;;
35757;SDS011;21879;50.110;18.900;2023-09-07T07:50:06;13.50;;;8.70;;
35757;SDS011;21879;50.110;18.900;2023-09-07T08:00:35;12.30;;;9.60;;
35757;SDS011;21879;50.110;18.900;2023-09-07T08:11:05;10.80;;;8.00;;
35757;SDS011;21879;50.110;18.900;2023-09-07T08:21:34;8.00;;;6.90;;
35757;SDS011;21879;50.110;18.900;2023-09-07T08:32:02;11.30;;;8.50;;
35757;SDS011;21879;50.110;18.900;2023-09-07T08:42:31;11.90;;;7.40;;
35757;SDS011;21879;50.110;18.900;2023-09-07T08:53:01;9.10;;;7.10;;
35757;SDS011;21879;50.110;18.900;2023-09-07T09:03:28;12.50;;;8.00;;
35757;SDS011;21879;50.110;18.900;2023-09-07T09:13:56;7.20;;;6.10;;
35757;SDS011;21879;50.110;18.900;2023-09-07T09:24:25;8.70;;;6.50;;
35757;SDS011;21879;50.110;18.900;2023-09-07T09:34:53;8.70;;;6.00;;
35757;SDS011;21879;50.110;18.900;2023-09-07T09:45:22;8.20;;;6.70;;
35757;SDS011;21879;50.110;18.900;2023-09-07T09:55:52;8.10;;;5.50;;
35757;SDS011;21879;50.110;18.900;2023-09-07T10:06:22;6.70;;;5.70;;
35757;SDS011;21879;50.110;18.900;2023-09-07T10:16:52;7.20;;;5.10;;
35757;SDS011;21879;50.110;18.900;2023-09-07T10:27:25;6.30;;;5.00;;
35757;SDS011;21879;50.110;18.900;2023-09-07T10:38:05;7.80;;;5.60;;
35757;SDS011;21879;50.110;18.900;2023-09-07T10:48:34;8.50;;;5.50;;
35757;SDS011;21879;50.110;18.900;2023-09-07T10:59:02;6.30;;;4.80;;
35757;SDS011;21879;50.110;18.900;2023-09-07T11:09:31;7.00;;;5.80;;
35757;SDS011;21879;50.110;18.900;2023-09-07T11:20:02;6.30;;;5.00;;
35757;SDS011;21879;50.110;18.900;2023-09-07T11:30:32;8.90;;;7.10;;
35757;SDS011;21879;50.110;18.900;2023-09-07T11:41:01;8.50;;;6.10;;
35757;SDS011;21879;50.110;18.900;2023-09-07T11:51:29;8.70;;;5.50;;
35757;SDS011;21879;50.110;18.900;2023-09-07T12:01:57;8.70;;;5.10;;
35757;SDS011;21879;50.110;18.900;2023-09-07T12:12:25;8.00;;;5.50;;
35757;SDS011;21879;50.110;18.900;2023-09-07T12:22:53;7.20;;;5.20;;
35757;SDS011;21879;50.110;18.900;2023-09-07T12:33:21;6.80;;;4.60;;
35757;SDS011;21879;50.110;18.900;2023-09-07T12:43:49;5.70;;;4.70;;
35757;SDS011;21879;50.110;18.900;2023-09-07T12:54:18;8.50;;;5.40;;
35757;SDS011;21879;50.110;18.900;2023-09-07T13:04:46;9.00;;;5.70;;
35757;SDS011;21879;50.110;18.900;2023-09-07T13:15:14;7.50;;;5.70;;
35757;SDS011;21879;50.110;18.900;2023-09-07T13:25:42;7.30;;;4.90;;
35757;SDS011;21879;50.110;18.900;2023-09-07T13:36:10;7.70;;;4.80;;
35757;SDS011;21879;50.110;18.900;2023-09-07T13:46:38;7.00;;;4.30;;
35757;SDS011;21879;50.110;18.900;2023-09-07T13:57:07;7.30;;;5.30;;
35757;SDS011;21879;50.110;18.900;2023-09-07T14:07:35;7.70;;;5.20;;
35757;SDS011;21879;50.110;18.900;2023-09-07T14:18:03;6.90;;;4.90;;
35757;SDS011;21879;50.110;18.900;2023-09-07T14:28:32;6.90;;;3.80;;
35757;SDS011;21879;50.110;18.900;2023-09-07T14:39:02;6.70;;;4.10;;
35757;SDS011;21879;50.110;18.900;2023-09-07T14:49:33;6.00;;;4.20;;
35757;SDS011;21879;50.110;18.900;2023-09-07T15:00:01;7.50;;;5.60;;
35757;SDS011;21879;50.110;18.900;2023-09-07T15:10:30;6.30;;;3.40;;
35757;SDS011;21879;50.110;18.900;2023-09-07T15:20:59;6.00;;;3.80;;
35757;SDS011;21879;50.110;18.900;2023-09-07T15:31:27;5.00;;;4.00;;
35757;SDS011;21879;50.110;18.900;2023-09-07T15:41:56;13.70;;;4.60;;
35757;SDS011;21879;50.110;18.900;2023-09-07T15:52:24;6.20;;;4.90;;
35757;SDS011;21879;50.110;18.900;2023-09-07T16:02:53;7.00;;;5.70;;
35757;SDS011;21879;50.110;18.900;2023-09-07T16:13:21;6.20;;;5.10;;
35757;SDS011;21879;50.110;18.900;2023-09-07T16:23:51;6.50;;;5.10;;
35757;SDS011;21879;50.110;18.900;2023-09-07T16:34:19;9.10;;;6.00;;
35757;SDS011;21879;50.110;18.900;2023-09-07T16:44:49;8.70;;;6.60;;
35757;SDS011;21879;50.110;18.900;2023-09-07T16:55:17;8.40;;;5.80;;
35757;SDS011;21879;50.110;18.900;2023-09-07T17:05:47;9.90;;;6.10;;
35757;SDS011;21879;50.110;18.900;2023-09-07T17:16:16;6.80;;;4.80;;
35757;SDS011;21879;50.110;18.900;2023-09-07T17:26:44;10.30;;;6.10;;
35757;SDS011;21879;50.110;18.900;2023-09-07T17:37:13;8.60;;;5.80;;
35757;SDS011;21879;50.110;18.900;2023-09-07T17:47:40;9.60;;;7.10;;
35757;SDS011;21879;50.110;18.900;2023-09-07T17:58:09;7.60;;;6.60;;
35757;SDS011;21879;50.110;18.900;2023-09-07T18:08:38;8.60;;;6.00;;
35757;SDS011;21879;50.110;18.900;2023-09-07T18:19:05;8.30;;;6.20;;
35757;SDS011;21879;50.110;18.900;2023-09-07T18:29:34;9.70;;;6.40;;
35757;SDS011;21879;50.110;18.900;2023-09-07T18:40:02;10.70;;;7.80;;
35757;SDS011;21879;50.110;18.900;2023-09-07T18:50:33;9.20;;;7.50;;
35757;SDS011;21879;50.110;18.900;2023-09-07T19:01:10;9.30;;;7.80;;
35757;SDS011;21879;50.110;18.900;2023-09-07T19:11:39;9.50;;;8.30;;
35757;SDS011;21879;50.110;18.900;2023-09-07T19:22:07;10.80;;;8.60;;
35757;SDS011;21879;50.110;18.900;2023-09-07T19:32:35;12.60;;;9.50;;
35757;SDS011;21879;50.110;18.900;2023-09-07T19:43:06;12.30;;;9.90;;
35757;SDS011;21879;50.110;18.900;2023-09-07T19:53:33;11.30;;;8.80;;
35757;SDS011;21879;50.110;18.900;2023-09-07T20:04:06;13.70;;;9.10;;
35757;SDS011;21879;50.110;18.900;2023-09-07T20:14:38;11.90;;;9.30;;
35757;SDS011;21879;50.110;18.900;2023-09-07T20:25:07;11.30;;;9.60;;
35757;SDS011;21879;50.110;18.900;2023-09-07T20:35:35;11.00;;;9.50;;
35757;SDS011;21879;50.110;18.900;2023-09-07T20:46:03;10.80;;;9.60;;
35757;SDS011;21879;50.110;18.900;2023-09-07T20:56:31;12.80;;;10.30;;
35757;SDS011;21879;50.110;18.900;2023-09-07T21:06:59;13.20;;;9.80;;
35757;SDS011;21879;50.110;18.900;2023-09-07T21:17:27;13.30;;;9.90;;
35757;SDS011;21879;50.110;18.900;2023-09-07T21:27:54;11.00;;;9.90;;
35757;SDS011;21879;50.110;18.900;2023-09-07T21:38:22;11.80;;;9.40;;
35757;SDS011;21879;50.110;18.900;2023-09-07T21:48:50;13.70;;;9.20;;
35757;SDS011;21879;50.110;18.900;2023-09-07T21:59:18;10.00;;;7.80;;
35757;SDS011;21879;50.110;18.900;2023-09-07T22:09:47;14.60;;;10.70;;
35757;SDS011;21879;50.110;18.900;2023-09-07T22:20:15;13.40;;;11.70;;
35757;SDS011;21879;50.110;18.900;2023-09-07T22:30:43;13.50;;;11.30;;
35757;SDS011;21879;50.110;18.900;2023-09-07T22:41:11;12.50;;;10.10;;
35757;SDS011;21879;50.110;18.900;2023-09-07T22:51:39;15.90;;;13.10;;
35757;SDS011;21879;50.110;18.900;2023-09-07T23:02:07;11.20;;;10.10;;
35757;SDS011;21879;50.110;18.900;2023-09-07T23:12:35;13.70;;;11.10;;
35757;SDS011;21879;50.110;18.900;2023-09-07T23:23:04;12.70;;;11.40;;
35757;SDS011;21879;50.110;18.900;2023-09-07T23:33:31;13.30;;;11.20;;
35757;SDS011;21879;50.110;18.900;2023-09-07T23:44:00;13.50;;;10.30;;
35757;SDS011;21879;50.110;18.900;2023-09-07T23:54:28;14.70;;;12.60;;
